VTBDVVDN

Guest
Details From VTBD - Bangkok Don Mueang Intl
To VVDN - DANANG INTL
Flight Number -
Tags generated
Created
Modified
Stats Distance 459 nm / 850 km
Max Altitude 35,000 ft / 10,668 m
Waypoints 7
Social Downloads 8
Likes 0
Share

Download

Looking for another format? Having issues loading an existing format? Contact us
Advertisement - Login to hide

Notes

Basic altitude profile: - Ascent Rate: 2500ft/min - Ascent Speed: 250kts - Cruise Altitude: 35000ft - Cruise Speed: 420kts - Descent Rate: 1500ft/min - Descent Speed: 250kts Options: - Use NATs: yes - Use PACOTS: yes - Use low airways: yes - Use high airways: yes

Route

VTBD SELKA A1 TANNA VVDN

ID Type Via Altitude (ft/m) Position (lat/lon) Dist (leg/tot) Name
O VTBD APT - 0 / 0 13.91260 / 100.60680 - / 0 nm Bangkok Don Mueang Intl
SELKA FIX - 29,400 / 8,961 14.35997 / 101.99653 85 / 85 nm
UBL VOR A1 (AWY-HI) 35,000 / 10,668 15.24520 / 104.86592 174 / 260 nm UBON VOR-DME
BUTRA FIX A1 (AWY-HI) 33,200 / 10,119 15.41667 / 105.60000 43 / 303 nm
PAPRA FIX A1 (AWY-HI) 13,000 / 3,962 15.76667 / 107.18333 93 / 397 nm
TANNA FIX A1 (AWY-LO) 25,000 / 7,620 15.90333 / 107.65889 28 / 426 nm
O VVDN APT - 0 / 0 16.04390 / 108.19940 32 / 458 nm DANANG INTL

Altitude Profile

Advertisement - Login to hide

Weather


0- 5 10 15 20 25 30 35+ Temperature / °C

Clouds and Precipitation
Forecast for 2020-12-01 12:00 UTC. Updated 2 hours ago

Ground ~20,000 ft ~40,000 ft Winds

VTBD

Details ICAO VTBD (DMK)
Name Bangkok Don Mueang Intl
Region Thailand
Timezone Asia/Bangkok (UTC+7.0)
Stats Elevation 9 ft / 3 m (AMSL)
Location 13.912500° 100.607000°
Runways 2
Magnetic Variation 0.563° W

METAR

VTBD 011130Z 03006KT 9999 FEW025 27/20 Q1012 NOSIG

Decode

TAF

TAF VTBD 010500Z 0106/0212 03008KT 9999 FEW030= TAF VTCC 010500Z 0106/0212 03008KT 9999 FEW035

Decode

Departure Runways

ID Width Length Bearing (true/mag) Surface Threshold Overrun Markings Lighting
03L 197 ft / 60 m 12,191 ft / 3,716 m 28.56° / 29.12° ASPHALT 0 ft / 0 m 492 ft / 150 m PREC-APP CENTERLINE EDGE THRESHOLD SALS
03R 148 ft / 45 m 11,543 ft / 3,518 m 28.57° / 29.13° ASPHALT 0 ft / 0 m 325 ft / 99 m PREC-APP EDGE THRESHOLD SALS REIL-OMNI
21L 148 ft / 45 m 11,543 ft / 3,518 m 208.57° / 209.13° ASPHALT 1,145 ft / 349 m 0 ft / 0 m PREC-APP EDGE THRESHOLD ALSF-I
21R 197 ft / 60 m 12,191 ft / 3,716 m 208.56° / 209.12° ASPHALT 0 ft / 0 m 492 ft / 150 m PREC-APP CENTERLINE EDGE THRESHOLD ALSF-II TDZ

VVDN

Details ICAO VVDN (DAD)
Name DANANG INTL
Region Vietnam
Timezone Asia/Ho_Chi_Minh (UTC+7.0)
Stats Elevation 32 ft / 10 m (AMSL)
Location 16.044200° 108.199000°
Runways 2
Magnetic Variation 1.286° W

METAR

VVDN 011130Z 07005KT 040V130 4000 -RA BR FEW007 SCT010 OVC040 23/22 Q1017 NOSIG

Decode

TAF

TAF VVDN 010500Z 0106/0206 04012KT 6000 FEW008 SCT010 OVC040 TEMPO 0106/0113 2500 RA BR TEMPO 0113/0201 4000 RA BR

Decode

Destination Runways

ID Width Length Bearing (true/mag) Surface Threshold Overrun Markings Lighting
17L 144 ft / 44 m 11,540 ft / 3,518 m 172.06° / 173.35° ASPHALT 0 ft / 0 m 991 ft / 302 m PREC-APP EDGE THRESHOLD
17R 139 ft / 42 m 10,017 ft / 3,053 m 172.16° / 173.45° ASPHALT 0 ft / 0 m 1,083 ft / 330 m PREC-APP
35L 139 ft / 42 m 10,017 ft / 3,053 m 352.16° / 353.45° ASPHALT 0 ft / 0 m 1,017 ft / 310 m PREC-APP
35R 144 ft / 44 m 11,540 ft / 3,518 m 352.06° / 353.35° ASPHALT 0 ft / 0 m 974 ft / 297 m PREC-APP EDGE THRESHOLD SALS

Approach Navaids

Runway Type Ident Frequency Range Bearing (true/mag) Slope Elevation
35L GS DAD 110.50 MHz 10 nm / 19 km 352.16° / 353.45 ° 3.00° 32 ft / 10 m (AMSL)
35L LOC-ILS DAD 110.50 MHz 18 nm / 33 km 352.16° / 353.45 ° - 32 ft / 10 m (AMSL)
35R DME DAD 110.50 MHz 18 nm / 33 km - - 33 ft / 10 m (AMSL)
35R LOC-ILS IDR 111.50 MHz 18 nm / 33 km 352.06° / 353.35 ° - 32 ft / 10 m (AMSL)
35R GS IDR 111.50 MHz 10 nm / 19 km 352.06° / 353.35 ° 3.00° 32 ft / 10 m (AMSL)

Popular Alternatives